sensor_id;sensor_type;location;lat;lon;timestamp;pressure;altitude;pressure_sealevel;temperature;humidity
38812;BME280;24553;51.640;-0.752;2022-12-07T00:01:39;101709.78;;;1.69;100.00
38812;BME280;24553;51.640;-0.752;2022-12-07T00:04:05;101704.75;;;1.66;100.00
38812;BME280;24553;51.640;-0.752;2022-12-07T00:06:35;101713.44;;;1.67;100.00
38812;BME280;24553;51.640;-0.752;2022-12-07T00:09:02;101701.63;;;1.61;100.00
38812;BME280;24553;51.640;-0.752;2022-12-07T00:11:27;101712.78;;;1.50;100.00
38812;BME280;24553;51.640;-0.752;2022-12-07T00:13:53;101708.59;;;1.35;100.00
38812;BME280;24553;51.640;-0.752;2022-12-07T00:16:20;101707.50;;;1.25;100.00
38812;BME280;24553;51.640;-0.752;2022-12-07T00:18:45;101699.13;;;1.20;100.00
38812;BME280;24553;51.640;-0.752;2022-12-07T00:23:36;101701.63;;;1.21;100.00
38812;BME280;24553;51.640;-0.752;2022-12-07T00:26:05;101705.41;;;1.17;100.00
38812;BME280;24553;51.640;-0.752;2022-12-07T00:28:30;101708.72;;;1.06;100.00
38812;BME280;24553;51.640;-0.752;2022-12-07T00:31:00;101704.19;;;0.96;100.00
38812;BME280;24553;51.640;-0.752;2022-12-07T00:33:25;101702.06;;;0.88;100.00
38812;BME280;24553;51.640;-0.752;2022-12-07T00:35:54;101707.47;;;0.85;100.00
38812;BME280;24553;51.640;-0.752;2022-12-07T00:38:20;101700.06;;;0.92;100.00
38812;BME280;24553;51.640;-0.752;2022-12-07T00:40:53;101709.00;;;1.02;100.00
38812;BME280;24553;51.640;-0.752;2022-12-07T00:43:18;101703.53;;;1.19;100.00
38812;BME280;24553;51.640;-0.752;2022-12-07T00:45:43;101716.25;;;1.24;100.00
38812;BME280;24553;51.640;-0.752;2022-12-07T00:48:08;101711.78;;;1.26;100.00
38812;BME280;24553;51.640;-0.752;2022-12-07T00:50:34;101708.78;;;1.32;100.00
38812;BME280;24553;51.640;-0.752;2022-12-07T00:52:59;101706.28;;;1.43;100.00
38812;BME280;24553;51.640;-0.752;2022-12-07T00:55:24;101709.22;;;1.51;100.00
38812;BME280;24553;51.640;-0.752;2022-12-07T00:57:49;101707.78;;;1.60;100.00
38812;BME280;24553;51.640;-0.752;2022-12-07T01:00:14;101704.75;;;1.66;100.00
38812;BME280;24553;51.640;-0.752;2022-12-07T01:02:40;101705.28;;;1.71;100.00
38812;BME280;24553;51.640;-0.752;2022-12-07T01:05:06;101706.34;;;1.69;100.00
38812;BME280;24553;51.640;-0.752;2022-12-07T01:07:31;101703.63;;;1.70;100.00
38812;BME280;24553;51.640;-0.752;2022-12-07T01:09:56;101701.94;;;1.69;100.00
38812;BME280;24553;51.640;-0.752;2022-12-07T01:12:21;101692.81;;;1.75;100.00
38812;BME280;24553;51.640;-0.752;2022-12-07T01:14:47;101695.78;;;1.70;100.00
38812;BME280;24553;51.640;-0.752;2022-12-07T01:17:12;101691.38;;;1.71;100.00
38812;BME280;24553;51.640;-0.752;2022-12-07T01:19:37;101697.22;;;1.62;100.00
38812;BME280;24553;51.640;-0.752;2022-12-07T01:22:02;101686.97;;;1.59;100.00
38812;BME280;24553;51.640;-0.752;2022-12-07T01:24:27;101690.53;;;1.58;100.00
38812;BME280;24553;51.640;-0.752;2022-12-07T01:26:53;101688.09;;;1.55;100.00
38812;BME280;24553;51.640;-0.752;2022-12-07T01:29:18;101683.38;;;1.47;100.00
38812;BME280;24553;51.640;-0.752;2022-12-07T01:31:43;101687.78;;;1.46;100.00
38812;BME280;24553;51.640;-0.752;2022-12-07T01:34:08;101686.41;;;1.41;100.00
38812;BME280;24553;51.640;-0.752;2022-12-07T01:36:34;101691.13;;;1.36;100.00
38812;BME280;24553;51.640;-0.752;2022-12-07T01:39:01;101681.28;;;1.39;100.00
38812;BME280;24553;51.640;-0.752;2022-12-07T01:41:29;101674.72;;;1.46;100.00
38812;BME280;24553;51.640;-0.752;2022-12-07T01:46:32;101684.75;;;1.40;100.00
38812;BME280;24553;51.640;-0.752;2022-12-07T01:48:57;101683.38;;;1.34;100.00
38812;BME280;24553;51.640;-0.752;2022-12-07T01:51:23;101687.03;;;1.31;100.00
38812;BME280;24553;51.640;-0.752;2022-12-07T01:53:48;101693.09;;;1.32;100.00
38812;BME280;24553;51.640;-0.752;2022-12-07T01:56:15;101690.81;;;1.40;100.00
38812;BME280;24553;51.640;-0.752;2022-12-07T01:58:42;101697.00;;;1.52;100.00
38812;BME280;24553;51.640;-0.752;2022-12-07T02:01:07;101692.72;;;1.51;100.00
38812;BME280;24553;51.640;-0.752;2022-12-07T02:03:34;101695.03;;;1.56;100.00
38812;BME280;24553;51.640;-0.752;2022-12-07T02:06:01;101700.47;;;1.52;100.00
38812;BME280;24553;51.640;-0.752;2022-12-07T02:08:27;101692.47;;;1.41;100.00
38812;BME280;24553;51.640;-0.752;2022-12-07T02:10:52;101691.63;;;1.28;100.00
38812;BME280;24553;51.640;-0.752;2022-12-07T02:13:24;101686.16;;;1.18;100.00
38812;BME280;24553;51.640;-0.752;2022-12-07T02:26:24;101675.97;;;0.74;100.00
38812;BME280;24553;51.640;-0.752;2022-12-07T02:29:07;101681.41;;;0.71;100.00
38812;BME280;24553;51.640;-0.752;2022-12-07T02:31:36;101688.19;;;0.73;100.00
38812;BME280;24553;51.640;-0.752;2022-12-07T02:34:07;101685.47;;;0.75;100.00
38812;BME280;24553;51.640;-0.752;2022-12-07T02:36:36;101690.41;;;0.79;100.00
38812;BME280;24553;51.640;-0.752;2022-12-07T02:43:56;101677.38;;;1.06;100.00
38812;BME280;24553;51.640;-0.752;2022-12-07T02:46:23;101675.69;;;1.18;100.00
38812;BME280;24553;51.640;-0.752;2022-12-07T02:48:51;101673.13;;;1.31;100.00
38812;BME280;24553;51.640;-0.752;2022-12-07T02:51:17;101675.22;;;1.39;100.00
38812;BME280;24553;51.640;-0.752;2022-12-07T02:53:43;101678.28;;;1.45;100.00
38812;BME280;24553;51.640;-0.752;2022-12-07T03:04:12;101664.91;;;1.75;100.00
38812;BME280;24553;51.640;-0.752;2022-12-07T03:06:42;101658.22;;;1.71;100.00
38812;BME280;24553;51.640;-0.752;2022-12-07T03:09:16;101663.66;;;1.68;100.00
38812;BME280;24553;51.640;-0.752;2022-12-07T03:11:47;101661.34;;;1.64;100.00
38812;BME280;24553;51.640;-0.752;2022-12-07T03:14:21;101663.97;;;1.64;100.00
38812;BME280;24553;51.640;-0.752;2022-12-07T03:17:00;101660.41;;;1.65;100.00
38812;BME280;24553;51.640;-0.752;2022-12-07T03:19:27;101659.69;;;1.63;100.00
38812;BME280;24553;51.640;-0.752;2022-12-07T03:21:55;101661.13;;;1.67;100.00
38812;BME280;24553;51.640;-0.752;2022-12-07T03:24:26;101654.66;;;1.72;100.00
38812;BME280;24553;51.640;-0.752;2022-12-07T03:26:53;101654.56;;;1.74;100.00
38812;BME280;24553;51.640;-0.752;2022-12-07T03:29:31;101653.81;;;1.72;100.00
38812;BME280;24553;51.640;-0.752;2022-12-07T03:32:02;101648.19;;;1.65;100.00
38812;BME280;24553;51.640;-0.752;2022-12-07T03:34:31;101645.88;;;1.61;100.00
38812;BME280;24553;51.640;-0.752;2022-12-07T03:37:00;101652.91;;;1.60;100.00
38812;BME280;24553;51.640;-0.752;2022-12-07T03:42:11;101644.53;;;1.55;100.00
38812;BME280;24553;51.640;-0.752;2022-12-07T03:44:37;101644.63;;;1.53;100.00
38812;BME280;24553;51.640;-0.752;2022-12-07T03:49:41;101644.38;;;1.31;100.00
38812;BME280;24553;51.640;-0.752;2022-12-07T03:54:55;101643.63;;;1.29;100.00
38812;BME280;24553;51.640;-0.752;2022-12-07T03:57:21;101648.31;;;1.24;100.00
38812;BME280;24553;51.640;-0.752;2022-12-07T03:59:48;101648.66;;;1.19;100.00
38812;BME280;24553;51.640;-0.752;2022-12-07T04:02:13;101643.09;;;1.11;100.00
38812;BME280;24553;51.640;-0.752;2022-12-07T04:04:39;101635.78;;;1.03;100.00
38812;BME280;24553;51.640;-0.752;2022-12-07T04:07:04;101639.28;;;0.90;100.00
38812;BME280;24553;51.640;-0.752;2022-12-07T04:09:29;101644.44;;;0.77;100.00
38812;BME280;24553;51.640;-0.752;2022-12-07T04:11:55;101639.63;;;0.71;100.00
38812;BME280;24553;51.640;-0.752;2022-12-07T04:14:20;101638.25;;;0.65;100.00
38812;BME280;24553;51.640;-0.752;2022-12-07T04:16:46;101631.94;;;0.55;100.00
38812;BME280;24553;51.640;-0.752;2022-12-07T04:19:11;101633.63;;;0.56;100.00
38812;BME280;24553;51.640;-0.752;2022-12-07T04:21:37;101629.72;;;0.49;100.00
38812;BME280;24553;51.640;-0.752;2022-12-07T04:24:02;101625.94;;;0.40;100.00
38812;BME280;24553;51.640;-0.752;2022-12-07T04:26:27;101621.28;;;0.31;100.00
38812;BME280;24553;51.640;-0.752;2022-12-07T04:28:53;101629.78;;;0.20;100.00
38812;BME280;24553;51.640;-0.752;2022-12-07T04:31:18;101627.22;;;0.06;100.00
38812;BME280;24553;51.640;-0.752;2022-12-07T04:33:43;101620.13;;;-0.07;100.00
38812;BME280;24553;51.640;-0.752;2022-12-07T04:36:08;101623.97;;;-0.12;100.00
38812;BME280;24553;51.640;-0.752;2022-12-07T04:38:34;101620.78;;;-0.17;100.00
38812;BME280;24553;51.640;-0.752;2022-12-07T04:41:03;101626.56;;;-0.27;100.00
38812;BME280;24553;51.640;-0.752;2022-12-07T04:43:29;101621.72;;;-0.33;100.00
38812;BME280;24553;51.640;-0.752;2022-12-07T04:45:54;101622.06;;;-0.39;100.00
38812;BME280;24553;51.640;-0.752;2022-12-07T04:48:19;101626.72;;;-0.44;100.00
38812;BME280;24553;51.640;-0.752;2022-12-07T04:50:47;101630.00;;;-0.40;100.00
38812;BME280;24553;51.640;-0.752;2022-12-07T04:53:13;101626.19;;;-0.20;100.00
38812;BME280;24553;51.640;-0.752;2022-12-07T04:55:38;101626.75;;;-0.01;100.00
38812;BME280;24553;51.640;-0.752;2022-12-07T04:58:03;101631.69;;;0.04;100.00
38812;BME280;24553;51.640;-0.752;2022-12-07T05:00:29;101628.25;;;0.03;100.00
38812;BME280;24553;51.640;-0.752;2022-12-07T05:02:54;101625.13;;;0.25;100.00
38812;BME280;24553;51.640;-0.752;2022-12-07T05:05:19;101627.59;;;0.41;100.00
38812;BME280;24553;51.640;-0.752;2022-12-07T05:07:44;101632.03;;;0.53;100.00
38812;BME280;24553;51.640;-0.752;2022-12-07T05:10:10;101625.38;;;0.62;100.00
38812;BME280;24553;51.640;-0.752;2022-12-07T05:12:35;101631.47;;;0.62;100.00
38812;BME280;24553;51.640;-0.752;2022-12-07T05:15:00;101633.22;;;0.62;100.00
38812;BME280;24553;51.640;-0.752;2022-12-07T05:17:25;101630.19;;;0.55;100.00
38812;BME280;24553;51.640;-0.752;2022-12-07T05:19:50;101632.50;;;0.60;100.00
38812;BME280;24553;51.640;-0.752;2022-12-07T05:22:16;101631.63;;;0.59;100.00
38812;BME280;24553;51.640;-0.752;2022-12-07T05:24:41;101632.28;;;0.63;100.00
38812;BME280;24553;51.640;-0.752;2022-12-07T05:27:07;101628.75;;;0.64;100.00
38812;BME280;24553;51.640;-0.752;2022-12-07T05:29:32;101631.47;;;0.62;100.00
38812;BME280;24553;51.640;-0.752;2022-12-07T05:31:57;101635.66;;;0.65;100.00
38812;BME280;24553;51.640;-0.752;2022-12-07T05:34:22;101623.97;;;0.71;100.00
38812;BME280;24553;51.640;-0.752;2022-12-07T05:36:47;101623.69;;;0.75;100.00
38812;BME280;24553;51.640;-0.752;2022-12-07T05:39:13;101630.56;;;0.76;100.00
38812;BME280;24553;51.640;-0.752;2022-12-07T05:41:38;101625.34;;;0.76;100.00
38812;BME280;24553;51.640;-0.752;2022-12-07T05:44:22;101623.03;;;0.72;100.00
38812;BME280;24553;51.640;-0.752;2022-12-07T05:46:48;101621.78;;;0.77;100.00
38812;BME280;24553;51.640;-0.752;2022-12-07T05:49:13;101622.56;;;0.92;100.00
38812;BME280;24553;51.640;-0.752;2022-12-07T05:51:38;101615.88;;;0.88;100.00
38812;BME280;24553;51.640;-0.752;2022-12-07T05:54:03;101618.88;;;0.82;100.00
38812;BME280;24553;51.640;-0.752;2022-12-07T05:56:29;101616.94;;;0.85;100.00
38812;BME280;24553;51.640;-0.752;2022-12-07T05:58:54;101603.97;;;0.84;100.00
38812;BME280;24553;51.640;-0.752;2022-12-07T06:01:37;101615.63;;;0.78;100.00
38812;BME280;24553;51.640;-0.752;2022-12-07T06:04:03;101605.78;;;0.69;100.00
38812;BME280;24553;51.640;-0.752;2022-12-07T06:06:28;101611.06;;;0.55;100.00
38812;BME280;24553;51.640;-0.752;2022-12-07T06:08:53;101599.16;;;0.51;100.00
38812;BME280;24553;51.640;-0.752;2022-12-07T06:11:18;101598.25;;;0.37;100.00
38812;BME280;24553;51.640;-0.752;2022-12-07T06:14:02;101605.81;;;0.28;100.00
38812;BME280;24553;51.640;-0.752;2022-12-07T06:16:28;101601.91;;;0.20;100.00
38812;BME280;24553;51.640;-0.752;2022-12-07T06:18:53;101611.81;;;0.15;100.00
38812;BME280;24553;51.640;-0.752;2022-12-07T06:21:18;101613.03;;;0.10;100.00
38812;BME280;24553;51.640;-0.752;2022-12-07T06:23:43;101605.94;;;0.12;100.00
38812;BME280;24553;51.640;-0.752;2022-12-07T06:26:09;101611.25;;;0.10;100.00
38812;BME280;24553;51.640;-0.752;2022-12-07T06:28:34;101615.84;;;0.07;100.00
38812;BME280;24553;51.640;-0.752;2022-12-07T06:31:00;101615.00;;;0.06;100.00
38812;BME280;24553;51.640;-0.752;2022-12-07T06:33:25;101623.56;;;0.08;100.00
38812;BME280;24553;51.640;-0.752;2022-12-07T06:35:51;101630.38;;;0.11;100.00
38812;BME280;24553;51.640;-0.752;2022-12-07T06:38:16;101620.78;;;0.11;100.00
38812;BME280;24553;51.640;-0.752;2022-12-07T06:40:41;101630.53;;;0.08;100.00
38812;BME280;24553;51.640;-0.752;2022-12-07T06:43:07;101634.16;;;0.05;100.00
38812;BME280;24553;51.640;-0.752;2022-12-07T06:45:32;101619.75;;;-0.01;100.00
38812;BME280;24553;51.640;-0.752;2022-12-07T06:47:58;101621.16;;;-0.09;100.00
38812;BME280;24553;51.640;-0.752;2022-12-07T06:50:23;101623.13;;;-0.27;100.00
38812;BME280;24553;51.640;-0.752;2022-12-07T06:52:48;101628.31;;;-0.41;100.00
38812;BME280;24553;51.640;-0.752;2022-12-07T06:55:14;101618.63;;;-0.54;100.00
38812;BME280;24553;51.640;-0.752;2022-12-07T06:57:39;101624.56;;;-0.66;100.00
38812;BME280;24553;51.640;-0.752;2022-12-07T07:00:04;101615.69;;;-0.78;100.00
38812;BME280;24553;51.640;-0.752;2022-12-07T07:02:30;101633.47;;;-0.84;100.00
38812;BME280;24553;51.640;-0.752;2022-12-07T07:04:55;101630.34;;;-0.91;100.00
38812;BME280;24553;51.640;-0.752;2022-12-07T07:07:20;101629.03;;;-0.98;100.00
38812;BME280;24553;51.640;-0.752;2022-12-07T07:09:45;101631.34;;;-1.08;100.00
38812;BME280;24553;51.640;-0.752;2022-12-07T07:12:10;101629.91;;;-1.14;100.00
38812;BME280;24553;51.640;-0.752;2022-12-07T07:14:36;101632.09;;;-1.22;100.00
38812;BME280;24553;51.640;-0.752;2022-12-07T07:17:01;101632.66;;;-1.31;100.00
38812;BME280;24553;51.640;-0.752;2022-12-07T07:19:26;101625.34;;;-1.40;100.00
38812;BME280;24553;51.640;-0.752;2022-12-07T07:21:51;101633.56;;;-1.48;100.00
38812;BME280;24553;51.640;-0.752;2022-12-07T07:24:17;101631.13;;;-1.51;100.00
38812;BME280;24553;51.640;-0.752;2022-12-07T07:26:42;101625.44;;;-1.58;100.00
38812;BME280;24553;51.640;-0.752;2022-12-07T07:29:07;101630.16;;;-1.64;100.00
38812;BME280;24553;51.640;-0.752;2022-12-07T07:31:32;101626.25;;;-1.73;100.00
38812;BME280;24553;51.640;-0.752;2022-12-07T07:34:00;101631.22;;;-1.68;100.00
38812;BME280;24553;51.640;-0.752;2022-12-07T07:36:25;101636.19;;;-1.64;100.00
38812;BME280;24553;51.640;-0.752;2022-12-07T07:38:50;101634.50;;;-1.65;100.00
38812;BME280;24553;51.640;-0.752;2022-12-07T07:41:16;101633.91;;;-1.70;100.00
38812;BME280;24553;51.640;-0.752;2022-12-07T07:43:41;101642.13;;;-1.78;100.00
38812;BME280;24553;51.640;-0.752;2022-12-07T07:46:07;101641.53;;;-1.83;100.00
38812;BME280;24553;51.640;-0.752;2022-12-07T07:48:32;101639.00;;;-1.84;100.00
38812;BME280;24553;51.640;-0.752;2022-12-07T07:50:57;101644.38;;;-1.87;100.00
38812;BME280;24553;51.640;-0.752;2022-12-07T07:53:22;101648.00;;;-1.90;100.00
38812;BME280;24553;51.640;-0.752;2022-12-07T07:55:51;101645.72;;;-1.96;100.00
38812;BME280;24553;51.640;-0.752;2022-12-07T07:58:17;101642.59;;;-2.03;100.00
38812;BME280;24553;51.640;-0.752;2022-12-07T08:00:42;101639.06;;;-2.02;100.00
38812;BME280;24553;51.640;-0.752;2022-12-07T08:03:08;101649.94;;;-1.93;100.00
38812;BME280;24553;51.640;-0.752;2022-12-07T08:05:33;101648.41;;;-1.98;100.00
38812;BME280;24553;51.640;-0.752;2022-12-07T08:07:58;101646.72;;;-1.99;100.00
38812;BME280;24553;51.640;-0.752;2022-12-07T08:10:23;101647.63;;;-2.00;100.00
38812;BME280;24553;51.640;-0.752;2022-12-07T08:12:49;101646.72;;;-1.99;100.00
38812;BME280;24553;51.640;-0.752;2022-12-07T08:15:32;101644.19;;;-2.00;100.00
38812;BME280;24553;51.640;-0.752;2022-12-07T08:17:58;101643.53;;;-2.04;100.00
38812;BME280;24553;51.640;-0.752;2022-12-07T08:20:23;101636.63;;;-2.05;100.00
38812;BME280;24553;51.640;-0.752;2022-12-07T08:22:49;101642.66;;;-2.04;100.00
38812;BME280;24553;51.640;-0.752;2022-12-07T08:25:14;101641.00;;;-2.05;100.00
38812;BME280;24553;51.640;-0.752;2022-12-07T08:27:39;101636.81;;;-2.08;100.00
38812;BME280;24553;51.640;-0.752;2022-12-07T08:30:05;101649.56;;;-2.03;100.00
38812;BME280;24553;51.640;-0.752;2022-12-07T08:32:30;101645.63;;;-1.79;100.00
38812;BME280;24553;51.640;-0.752;2022-12-07T08:34:55;101652.72;;;-1.65;100.00
38812;BME280;24553;51.640;-0.752;2022-12-07T08:37:21;101653.63;;;-1.66;100.00
38812;BME280;24553;51.640;-0.752;2022-12-07T08:39:46;101647.94;;;-1.72;100.00
38812;BME280;24553;51.640;-0.752;2022-12-07T08:42:11;101649.78;;;-1.59;100.00
38812;BME280;24553;51.640;-0.752;2022-12-07T08:44:36;101643.22;;;-1.50;100.00
38812;BME280;24553;51.640;-0.752;2022-12-07T08:47:02;101642.13;;;-1.46;100.00
38812;BME280;24553;51.640;-0.752;2022-12-07T08:49:35;101644.72;;;-1.46;100.00
38812;BME280;24553;51.640;-0.752;2022-12-07T08:52:01;101645.50;;;-1.44;100.00
38812;BME280;24553;51.640;-0.752;2022-12-07T08:54:28;101642.78;;;-1.42;100.00
38812;BME280;24553;51.640;-0.752;2022-12-07T08:56:54;101640.50;;;-1.17;100.00
38812;BME280;24553;51.640;-0.752;2022-12-07T08:59:19;101640.56;;;-1.02;100.00
38812;BME280;24553;51.640;-0.752;2022-12-07T09:01:45;101635.56;;;-0.91;100.00
38812;BME280;24553;51.640;-0.752;2022-12-07T09:04:10;101636.94;;;-0.70;100.00
38812;BME280;24553;51.640;-0.752;2022-12-07T09:06:36;101634.97;;;-0.66;100.00
38812;BME280;24553;51.640;-0.752;2022-12-07T09:09:02;101628.75;;;-0.63;100.00
38812;BME280;24553;51.640;-0.752;2022-12-07T09:11:28;101632.00;;;-0.60;100.00
38812;BME280;24553;51.640;-0.752;2022-12-07T09:13:53;101626.91;;;-0.61;100.00
38812;BME280;24553;51.640;-0.752;2022-12-07T09:16:18;101631.00;;;-0.57;100.00
38812;BME280;24553;51.640;-0.752;2022-12-07T09:18:44;101632.31;;;-0.50;100.00
38812;BME280;24553;51.640;-0.752;2022-12-07T09:21:09;101633.91;;;-0.48;100.00
38812;BME280;24553;51.640;-0.752;2022-12-07T09:23:34;101632.97;;;-0.32;100.00
38812;BME280;24553;51.640;-0.752;2022-12-07T09:26:00;101631.13;;;-0.30;100.00
38812;BME280;24553;51.640;-0.752;2022-12-07T09:28:26;101630.28;;;-0.31;100.00
38812;BME280;24553;51.640;-0.752;2022-12-07T09:30:51;101636.97;;;-0.27;100.00
38812;BME280;24553;51.640;-0.752;2022-12-07T09:33:16;101640.97;;;-0.21;100.00
38812;BME280;24553;51.640;-0.752;2022-12-07T09:35:46;101630.09;;;-0.13;100.00
38812;BME280;24553;51.640;-0.752;2022-12-07T09:38:12;101627.75;;;-0.04;100.00
38812;BME280;24553;51.640;-0.752;2022-12-07T09:40:37;101630.53;;;0.08;100.00
38812;BME280;24553;51.640;-0.752;2022-12-07T09:43:02;101625.88;;;0.13;100.00
38812;BME280;24553;51.640;-0.752;2022-12-07T09:45:32;101635.00;;;0.20;100.00
38812;BME280;24553;51.640;-0.752;2022-12-07T09:48:01;101628.56;;;0.26;100.00
38812;BME280;24553;51.640;-0.752;2022-12-07T09:50:27;101633.13;;;0.36;100.00
38812;BME280;24553;51.640;-0.752;2022-12-07T09:52:53;101630.94;;;0.43;100.00
38812;BME280;24553;51.640;-0.752;2022-12-07T09:55:25;101631.22;;;0.53;100.00
38812;BME280;24553;51.640;-0.752;2022-12-07T09:57:51;101625.69;;;0.57;100.00
38812;BME280;24553;51.640;-0.752;2022-12-07T10:00:18;101623.50;;;0.64;100.00
38812;BME280;24553;51.640;-0.752;2022-12-07T10:02:44;101629.00;;;0.74;100.00
38812;BME280;24553;51.640;-0.752;2022-12-07T10:05:15;101621.06;;;0.75;100.00
38812;BME280;24553;51.640;-0.752;2022-12-07T10:07:42;101621.50;;;0.82;100.00
38812;BME280;24553;51.640;-0.752;2022-12-07T10:10:15;101618.38;;;0.90;100.00
38812;BME280;24553;51.640;-0.752;2022-12-07T10:12:52;101609.94;;;0.99;100.00
38812;BME280;24553;51.640;-0.752;2022-12-07T10:15:17;101604.31;;;1.05;100.00
38812;BME280;24553;51.640;-0.752;2022-12-07T10:17:47;101602.22;;;1.10;100.00
38812;BME280;24553;51.640;-0.752;2022-12-07T10:20:24;101586.03;;;1.18;100.00
38812;BME280;24553;51.640;-0.752;2022-12-07T10:22:57;101575.28;;;1.22;100.00
38812;BME280;24553;51.640;-0.752;2022-12-07T10:25:25;101578.97;;;1.33;100.00
38812;BME280;24553;51.640;-0.752;2022-12-07T10:28:27;101571.63;;;1.38;100.00
38812;BME280;24553;51.640;-0.752;2022-12-07T10:38:44;101549.44;;;1.69;100.00
38812;BME280;24553;51.640;-0.752;2022-12-07T10:41:09;101550.56;;;1.78;100.00
38812;BME280;24553;51.640;-0.752;2022-12-07T10:43:34;101547.53;;;1.84;100.00
38812;BME280;24553;51.640;-0.752;2022-12-07T10:48:47;101534.59;;;2.06;100.00
38812;BME280;24553;51.640;-0.752;2022-12-07T10:54:16;101515.94;;;2.11;100.00
38812;BME280;24553;51.640;-0.752;2022-12-07T11:01:51;101502.75;;;2.36;100.00
38812;BME280;24553;51.640;-0.752;2022-12-07T11:06:55;101499.25;;;2.49;100.00
38812;BME280;24553;51.640;-0.752;2022-12-07T11:12:06;101488.78;;;2.60;100.00
38812;BME280;24553;51.640;-0.752;2022-12-07T11:17:05;101471.56;;;2.69;100.00
38812;BME280;24553;51.640;-0.752;2022-12-07T11:24:58;101460.38;;;2.78;100.00
38812;BME280;24553;51.640;-0.752;2022-12-07T11:28:00;101463.97;;;2.77;100.00
38812;BME280;24553;51.640;-0.752;2022-12-07T11:30:22;101466.59;;;2.77;100.00
38812;BME280;24553;51.640;-0.752;2022-12-07T11:32:51;101458.25;;;2.83;100.00
38812;BME280;24553;51.640;-0.752;2022-12-07T11:37:57;101448.84;;;2.92;100.00
38812;BME280;24553;51.640;-0.752;2022-12-07T11:40:25;101446.25;;;3.03;100.00
38812;BME280;24553;51.640;-0.752;2022-12-07T11:45:29;101436.72;;;3.13;100.00
38812;BME280;24553;51.640;-0.752;2022-12-07T11:48:06;101442.56;;;3.17;100.00
38812;BME280;24553;51.640;-0.752;2022-12-07T11:50:41;101439.09;;;3.27;100.00
38812;BME280;24553;51.640;-0.752;2022-12-07T12:01:04;101428.13;;;2.89;100.00
38812;BME280;24553;51.640;-0.752;2022-12-07T12:03:34;101426.66;;;2.51;100.00
38812;BME280;24553;51.640;-0.752;2022-12-07T12:06:03;101419.00;;;2.36;100.00
38812;BME280;24553;51.640;-0.752;2022-12-07T12:08:33;101414.22;;;2.30;100.00
38812;BME280;24553;51.640;-0.752;2022-12-07T12:21:27;101383.56;;;2.32;100.00
38812;BME280;24553;51.640;-0.752;2022-12-07T12:24:04;101377.81;;;2.27;100.00
38812;BME280;24553;51.640;-0.752;2022-12-07T12:26:33;101378.75;;;2.26;100.00
38812;BME280;24553;51.640;-0.752;2022-12-07T12:29:02;101385.69;;;2.27;100.00
38812;BME280;24553;51.640;-0.752;2022-12-07T12:34:02;101385.06;;;2.35;100.00
38812;BME280;24553;51.640;-0.752;2022-12-07T12:39:10;101385.53;;;2.87;100.00
38812;BME280;24553;51.640;-0.752;2022-12-07T12:51:54;101353.78;;;3.46;100.00
38812;BME280;24553;51.640;-0.752;2022-12-07T12:59:33;101342.00;;;3.72;100.00
38812;BME280;24553;51.640;-0.752;2022-12-07T13:04:37;101337.13;;;3.89;100.00
38812;BME280;24553;51.640;-0.752;2022-12-07T13:07:03;101327.09;;;3.94;100.00
38812;BME280;24553;51.640;-0.752;2022-12-07T13:09:29;101322.91;;;4.03;100.00
38812;BME280;24553;51.640;-0.752;2022-12-07T13:12:01;101319.75;;;4.09;100.00
38812;BME280;24553;51.640;-0.752;2022-12-07T13:17:55;101310.00;;;4.21;100.00
38812;BME280;24553;51.640;-0.752;2022-12-07T13:20:06;101303.81;;;4.22;100.00
38812;BME280;24553;51.640;-0.752;2022-12-07T13:25:48;101291.50;;;4.22;100.00
38812;BME280;24553;51.640;-0.752;2022-12-07T13:27:57;101289.97;;;4.20;100.00
38812;BME280;24553;51.640;-0.752;2022-12-07T13:33:36;101288.34;;;4.59;100.00
38812;BME280;24553;51.640;-0.752;2022-12-07T13:36:01;101290.00;;;4.50;100.00
38812;BME280;24553;51.640;-0.752;2022-12-07T13:38:31;101285.00;;;4.47;100.00
38812;BME280;24553;51.640;-0.752;2022-12-07T13:41:04;101285.22;;;4.65;100.00
38812;BME280;24553;51.640;-0.752;2022-12-07T13:43:29;101271.84;;;4.78;100.00
38812;BME280;24553;51.640;-0.752;2022-12-07T13:45:58;101268.78;;;4.73;100.00
38812;BME280;24553;51.640;-0.752;2022-12-07T13:48:34;101267.19;;;4.51;100.00
38812;BME280;24553;51.640;-0.752;2022-12-07T13:51:01;101264.25;;;4.44;100.00
38812;BME280;24553;51.640;-0.752;2022-12-07T13:53:27;101264.00;;;4.47;100.00
38812;BME280;24553;51.640;-0.752;2022-12-07T13:55:56;101261.47;;;4.46;100.00
38812;BME280;24553;51.640;-0.752;2022-12-07T13:58:21;101253.13;;;4.31;100.00
38812;BME280;24553;51.640;-0.752;2022-12-07T14:00:47;101245.47;;;4.18;100.00
38812;BME280;24553;51.640;-0.752;2022-12-07T14:05:38;101246.44;;;4.17;100.00
38812;BME280;24553;51.640;-0.752;2022-12-07T14:08:05;101245.34;;;4.20;100.00
38812;BME280;24553;51.640;-0.752;2022-12-07T14:12:56;101231.22;;;4.11;100.00
38812;BME280;24553;51.640;-0.752;2022-12-07T14:15:22;101225.66;;;4.04;100.00
38812;BME280;24553;51.640;-0.752;2022-12-07T14:17:52;101230.59;;;3.98;100.00
38812;BME280;24553;51.640;-0.752;2022-12-07T14:20:35;101228.03;;;3.86;100.00
38812;BME280;24553;51.640;-0.752;2022-12-07T14:23:01;101232.09;;;3.69;100.00
38812;BME280;24553;51.640;-0.752;2022-12-07T14:25:43;101229.19;;;3.52;100.00
38812;BME280;24553;51.640;-0.752;2022-12-07T14:28:09;101233.19;;;3.35;100.00
38812;BME280;24553;51.640;-0.752;2022-12-07T14:30:49;101230.75;;;3.22;100.00
38812;BME280;24553;51.640;-0.752;2022-12-07T14:33:14;101218.88;;;3.06;100.00
38812;BME280;24553;51.640;-0.752;2022-12-07T14:35:39;101226.06;;;2.93;100.00
38812;BME280;24553;51.640;-0.752;2022-12-07T14:38:05;101220.97;;;2.80;100.00
38812;BME280;24553;51.640;-0.752;2022-12-07T14:40:30;101214.81;;;2.70;100.00
38812;BME280;24553;51.640;-0.752;2022-12-07T14:42:57;101217.41;;;2.70;100.00
38812;BME280;24553;51.640;-0.752;2022-12-07T14:45:25;101215.06;;;2.67;100.00
38812;BME280;24553;51.640;-0.752;2022-12-07T14:47:50;101216.94;;;2.65;100.00